sensor_id;sensor_type;location;lat;lon;timestamp;P1;durP1;ratioP1;P2;durP2;ratioP2
57047;SDS011;42934;54.294;18.598;2023-01-25T00:00:11;20.98;;;11.13;;
57047;SDS011;42934;54.294;18.598;2023-01-25T00:03:00;21.00;;;10.82;;
57047;SDS011;42934;54.294;18.598;2023-01-25T00:05:30;22.00;;;11.00;;
57047;SDS011;42934;54.294;18.598;2023-01-25T00:08:00;20.42;;;11.05;;
57047;SDS011;42934;54.294;18.598;2023-01-25T00:10:29;18.73;;;9.80;;
57047;SDS011;42934;54.294;18.598;2023-01-25T00:12:58;26.38;;;11.52;;
57047;SDS011;42934;54.294;18.598;2023-01-25T00:15:27;21.13;;;10.10;;
57047;SDS011;42934;54.294;18.598;2023-01-25T00:17:57;18.92;;;10.55;;
57047;SDS011;42934;54.294;18.598;2023-01-25T00:20:26;19.08;;;10.18;;
57047;SDS011;42934;54.294;18.598;2023-01-25T00:22:55;20.13;;;10.10;;
57047;SDS011;42934;54.294;18.598;2023-01-25T00:25:25;18.70;;;10.10;;
57047;SDS011;42934;54.294;18.598;2023-01-25T00:30:23;19.20;;;10.05;;
57047;SDS011;42934;54.294;18.598;2023-01-25T00:32:53;22.30;;;10.52;;
57047;SDS011;42934;54.294;18.598;2023-01-25T00:35:29;18.75;;;9.85;;
57047;SDS011;42934;54.294;18.598;2023-01-25T00:38:00;21.38;;;9.77;;
57047;SDS011;42934;54.294;18.598;2023-01-25T00:40:34;18.63;;;9.15;;
57047;SDS011;42934;54.294;18.598;2023-01-25T00:43:04;17.55;;;9.13;;
57047;SDS011;42934;54.294;18.598;2023-01-25T00:45:33;22.63;;;10.63;;
57047;SDS011;42934;54.294;18.598;2023-01-25T00:48:03;24.33;;;11.10;;
57047;SDS011;42934;54.294;18.598;2023-01-25T00:50:32;17.77;;;9.25;;
57047;SDS011;42934;54.294;18.598;2023-01-25T00:53:04;20.60;;;9.55;;
57047;SDS011;42934;54.294;18.598;2023-01-25T00:55:35;18.15;;;9.38;;
57047;SDS011;42934;54.294;18.598;2023-01-25T00:58:04;18.83;;;9.90;;
57047;SDS011;42934;54.294;18.598;2023-01-25T01:00:33;20.42;;;10.05;;
57047;SDS011;42934;54.294;18.598;2023-01-25T01:03:02;20.85;;;10.07;;
57047;SDS011;42934;54.294;18.598;2023-01-25T01:05:31;22.07;;;10.27;;
57047;SDS011;42934;54.294;18.598;2023-01-25T01:08:01;18.52;;;10.35;;
57047;SDS011;42934;54.294;18.598;2023-01-25T01:10:31;22.45;;;10.38;;
57047;SDS011;42934;54.294;18.598;2023-01-25T01:13:01;22.23;;;10.60;;
57047;SDS011;42934;54.294;18.598;2023-01-25T01:15:30;18.80;;;10.13;;
57047;SDS011;42934;54.294;18.598;2023-01-25T01:18:02;20.38;;;9.93;;
57047;SDS011;42934;54.294;18.598;2023-01-25T01:20:32;22.23;;;10.70;;
57047;SDS011;42934;54.294;18.598;2023-01-25T01:23:00;19.17;;;9.90;;
57047;SDS011;42934;54.294;18.598;2023-01-25T01:25:30;20.15;;;9.77;;
57047;SDS011;42934;54.294;18.598;2023-01-25T01:28:00;19.15;;;9.40;;
57047;SDS011;42934;54.294;18.598;2023-01-25T01:30:30;19.63;;;10.38;;
57047;SDS011;42934;54.294;18.598;2023-01-25T01:32:59;18.77;;;9.48;;
57047;SDS011;42934;54.294;18.598;2023-01-25T01:35:29;16.88;;;8.85;;
57047;SDS011;42934;54.294;18.598;2023-01-25T01:37:59;22.17;;;10.05;;
57047;SDS011;42934;54.294;18.598;2023-01-25T01:40:28;15.57;;;8.70;;
57047;SDS011;42934;54.294;18.598;2023-01-25T01:42:58;17.73;;;9.18;;
57047;SDS011;42934;54.294;18.598;2023-01-25T01:45:49;17.60;;;8.98;;
57047;SDS011;42934;54.294;18.598;2023-01-25T01:48:31;18.60;;;9.77;;
57047;SDS011;42934;54.294;18.598;2023-01-25T01:51:08;37.72;;;14.55;;
57047;SDS011;42934;54.294;18.598;2023-01-25T01:53:46;26.73;;;11.80;;
57047;SDS011;42934;54.294;18.598;2023-01-25T01:56:22;22.95;;;10.98;;
57047;SDS011;42934;54.294;18.598;2023-01-25T01:58:59;17.42;;;9.90;;
57047;SDS011;42934;54.294;18.598;2023-01-25T02:01:33;28.58;;;11.45;;
57047;SDS011;42934;54.294;18.598;2023-01-25T02:04:02;17.10;;;8.88;;
57047;SDS011;42934;54.294;18.598;2023-01-25T02:06:35;17.00;;;9.20;;
57047;SDS011;42934;54.294;18.598;2023-01-25T02:09:15;19.48;;;9.43;;
57047;SDS011;42934;54.294;18.598;2023-01-25T02:11:48;19.63;;;9.63;;
57047;SDS011;42934;54.294;18.598;2023-01-25T02:14:19;16.00;;;9.10;;
57047;SDS011;42934;54.294;18.598;2023-01-25T02:16:50;20.40;;;9.85;;
57047;SDS011;42934;54.294;18.598;2023-01-25T02:21:55;29.60;;;12.70;;
57047;SDS011;42934;54.294;18.598;2023-01-25T02:24:27;17.45;;;8.90;;
57047;SDS011;42934;54.294;18.598;2023-01-25T02:27:01;18.77;;;9.95;;
57047;SDS011;42934;54.294;18.598;2023-01-25T02:29:30;19.45;;;9.82;;
57047;SDS011;42934;54.294;18.598;2023-01-25T02:32:01;20.50;;;10.23;;
57047;SDS011;42934;54.294;18.598;2023-01-25T02:34:31;20.30;;;10.77;;
57047;SDS011;42934;54.294;18.598;2023-01-25T02:37:02;18.38;;;10.00;;
57047;SDS011;42934;54.294;18.598;2023-01-25T02:39:31;20.25;;;10.50;;
57047;SDS011;42934;54.294;18.598;2023-01-25T02:42:02;19.23;;;10.10;;
57047;SDS011;42934;54.294;18.598;2023-01-25T02:44:31;18.27;;;10.40;;
57047;SDS011;42934;54.294;18.598;2023-01-25T02:47:02;19.33;;;9.93;;
57047;SDS011;42934;54.294;18.598;2023-01-25T02:49:33;17.70;;;9.32;;
57047;SDS011;42934;54.294;18.598;2023-01-25T02:52:03;18.33;;;10.18;;
57047;SDS011;42934;54.294;18.598;2023-01-25T02:54:33;21.83;;;10.98;;
57047;SDS011;42934;54.294;18.598;2023-01-25T02:57:06;22.50;;;11.82;;
57047;SDS011;42934;54.294;18.598;2023-01-25T02:59:41;22.08;;;11.82;;
57047;SDS011;42934;54.294;18.598;2023-01-25T03:02:12;18.90;;;10.20;;
57047;SDS011;42934;54.294;18.598;2023-01-25T03:04:42;20.40;;;10.23;;
57047;SDS011;42934;54.294;18.598;2023-01-25T03:07:11;18.48;;;10.05;;
57047;SDS011;42934;54.294;18.598;2023-01-25T03:09:40;19.35;;;10.68;;
57047;SDS011;42934;54.294;18.598;2023-01-25T03:12:12;21.67;;;11.25;;
57047;SDS011;42934;54.294;18.598;2023-01-25T03:14:42;22.90;;;11.65;;
57047;SDS011;42934;54.294;18.598;2023-01-25T03:17:12;28.88;;;12.68;;
57047;SDS011;42934;54.294;18.598;2023-01-25T03:19:41;19.45;;;10.82;;
57047;SDS011;42934;54.294;18.598;2023-01-25T03:22:11;29.65;;;13.13;;
57047;SDS011;42934;54.294;18.598;2023-01-25T03:24:40;30.10;;;13.27;;
57047;SDS011;42934;54.294;18.598;2023-01-25T03:27:11;19.10;;;10.73;;
57047;SDS011;42934;54.294;18.598;2023-01-25T03:29:46;19.95;;;9.80;;
57047;SDS011;42934;54.294;18.598;2023-01-25T03:32:20;20.48;;;10.82;;
57047;SDS011;42934;54.294;18.598;2023-01-25T03:34:49;19.15;;;10.23;;
57047;SDS011;42934;54.294;18.598;2023-01-25T03:37:19;20.83;;;10.93;;
57047;SDS011;42934;54.294;18.598;2023-01-25T03:39:48;22.27;;;11.60;;
57047;SDS011;42934;54.294;18.598;2023-01-25T03:42:21;19.63;;;9.43;;
57047;SDS011;42934;54.294;18.598;2023-01-25T03:44:55;19.35;;;10.60;;
57047;SDS011;42934;54.294;18.598;2023-01-25T03:47:24;37.60;;;15.05;;
57047;SDS011;42934;54.294;18.598;2023-01-25T03:49:54;22.00;;;10.57;;
57047;SDS011;42934;54.294;18.598;2023-01-25T03:52:23;21.35;;;10.75;;
57047;SDS011;42934;54.294;18.598;2023-01-25T03:54:54;73.63;;;23.75;;
57047;SDS011;42934;54.294;18.598;2023-01-25T03:57:24;20.95;;;11.20;;
57047;SDS011;42934;54.294;18.598;2023-01-25T03:59:59;18.50;;;9.50;;
57047;SDS011;42934;54.294;18.598;2023-01-25T04:02:30;23.33;;;11.85;;
57047;SDS011;42934;54.294;18.598;2023-01-25T04:05:00;19.90;;;10.80;;
57047;SDS011;42934;54.294;18.598;2023-01-25T04:07:29;24.42;;;11.43;;
57047;SDS011;42934;54.294;18.598;2023-01-25T04:10:00;24.05;;;11.52;;
57047;SDS011;42934;54.294;18.598;2023-01-25T04:12:33;19.23;;;10.20;;
57047;SDS011;42934;54.294;18.598;2023-01-25T04:17:31;49.07;;;18.20;;
57047;SDS011;42934;54.294;18.598;2023-01-25T04:20:10;21.85;;;11.55;;
57047;SDS011;42934;54.294;18.598;2023-01-25T04:22:40;21.67;;;10.88;;
57047;SDS011;42934;54.294;18.598;2023-01-25T04:25:09;18.27;;;9.45;;
57047;SDS011;42934;54.294;18.598;2023-01-25T04:27:47;18.48;;;9.75;;
57047;SDS011;42934;54.294;18.598;2023-01-25T04:30:18;18.25;;;10.25;;
57047;SDS011;42934;54.294;18.598;2023-01-25T04:35:28;23.13;;;11.35;;
57047;SDS011;42934;54.294;18.598;2023-01-25T04:37:59;21.52;;;10.50;;
57047;SDS011;42934;54.294;18.598;2023-01-25T04:40:35;19.83;;;10.88;;
57047;SDS011;42934;54.294;18.598;2023-01-25T04:43:05;19.67;;;10.33;;
57047;SDS011;42934;54.294;18.598;2023-01-25T04:45:35;15.95;;;9.43;;
57047;SDS011;42934;54.294;18.598;2023-01-25T04:48:10;33.22;;;13.65;;
57047;SDS011;42934;54.294;18.598;2023-01-25T04:50:47;36.75;;;14.50;;
57047;SDS011;42934;54.294;18.598;2023-01-25T04:53:20;19.05;;;10.82;;
57047;SDS011;42934;54.294;18.598;2023-01-25T04:55:50;21.02;;;10.40;;
57047;SDS011;42934;54.294;18.598;2023-01-25T05:00:51;17.10;;;9.25;;
57047;SDS011;42934;54.294;18.598;2023-01-25T05:03:21;15.68;;;8.63;;
57047;SDS011;42934;54.294;18.598;2023-01-25T05:05:52;17.73;;;9.70;;
57047;SDS011;42934;54.294;18.598;2023-01-25T05:08:23;19.45;;;10.65;;
57047;SDS011;42934;54.294;18.598;2023-01-25T05:10:57;18.63;;;9.52;;
57047;SDS011;42934;54.294;18.598;2023-01-25T05:13:48;18.13;;;9.82;;
57047;SDS011;42934;54.294;18.598;2023-01-25T05:16:28;21.13;;;11.30;;
57047;SDS011;42934;54.294;18.598;2023-01-25T05:18:58;29.55;;;12.52;;
57047;SDS011;42934;54.294;18.598;2023-01-25T05:21:42;25.02;;;12.45;;
57047;SDS011;42934;54.294;18.598;2023-01-25T05:24:31;21.83;;;11.48;;
57047;SDS011;42934;54.294;18.598;2023-01-25T05:27:05;22.40;;;11.43;;
57047;SDS011;42934;54.294;18.598;2023-01-25T05:30:06;16.52;;;9.45;;
57047;SDS011;42934;54.294;18.598;2023-01-25T05:32:43;18.23;;;9.98;;
57047;SDS011;42934;54.294;18.598;2023-01-25T05:35:13;21.23;;;10.25;;
57047;SDS011;42934;54.294;18.598;2023-01-25T05:37:43;17.85;;;10.05;;
57047;SDS011;42934;54.294;18.598;2023-01-25T05:40:21;25.25;;;11.45;;
57047;SDS011;42934;54.294;18.598;2023-01-25T05:42:53;23.63;;;12.23;;
57047;SDS011;42934;54.294;18.598;2023-01-25T05:45:26;28.02;;;12.43;;
57047;SDS011;42934;54.294;18.598;2023-01-25T05:47:57;20.52;;;10.90;;
57047;SDS011;42934;54.294;18.598;2023-01-25T05:50:27;19.52;;;10.90;;
57047;SDS011;42934;54.294;18.598;2023-01-25T05:53:02;23.88;;;11.13;;
57047;SDS011;42934;54.294;18.598;2023-01-25T05:55:33;19.83;;;10.10;;
57047;SDS011;42934;54.294;18.598;2023-01-25T05:58:07;20.92;;;10.50;;
57047;SDS011;42934;54.294;18.598;2023-01-25T06:00:39;22.73;;;11.55;;
57047;SDS011;42934;54.294;18.598;2023-01-25T06:03:13;29.75;;;13.38;;
57047;SDS011;42934;54.294;18.598;2023-01-25T06:05:43;85.32;;;29.00;;
57047;SDS011;42934;54.294;18.598;2023-01-25T06:08:12;24.15;;;11.82;;
57047;SDS011;42934;54.294;18.598;2023-01-25T06:10:47;33.92;;;13.45;;
57047;SDS011;42934;54.294;18.598;2023-01-25T06:13:17;25.52;;;11.57;;
57047;SDS011;42934;54.294;18.598;2023-01-25T06:15:53;32.97;;;13.30;;
57047;SDS011;42934;54.294;18.598;2023-01-25T06:18:55;26.85;;;12.77;;
57047;SDS011;42934;54.294;18.598;2023-01-25T06:21:45;29.85;;;12.60;;
57047;SDS011;42934;54.294;18.598;2023-01-25T06:24:14;29.20;;;13.05;;
57047;SDS011;42934;54.294;18.598;2023-01-25T06:26:43;34.13;;;13.55;;
57047;SDS011;42934;54.294;18.598;2023-01-25T06:29:12;44.83;;;16.80;;
57047;SDS011;42934;54.294;18.598;2023-01-25T06:31:43;36.53;;;14.43;;
57047;SDS011;42934;54.294;18.598;2023-01-25T06:36:41;31.98;;;13.68;;
57047;SDS011;42934;54.294;18.598;2023-01-25T06:39:10;32.60;;;14.20;;
57047;SDS011;42934;54.294;18.598;2023-01-25T06:41:39;41.08;;;17.33;;
57047;SDS011;42934;54.294;18.598;2023-01-25T06:44:08;43.45;;;17.38;;
57047;SDS011;42934;54.294;18.598;2023-01-25T06:46:37;42.53;;;14.97;;
57047;SDS011;42934;54.294;18.598;2023-01-25T06:49:08;33.95;;;14.55;;
57047;SDS011;42934;54.294;18.598;2023-01-25T06:51:38;39.55;;;15.45;;
57047;SDS011;42934;54.294;18.598;2023-01-25T06:54:07;39.25;;;15.77;;
57047;SDS011;42934;54.294;18.598;2023-01-25T06:56:37;41.08;;;14.88;;
57047;SDS011;42934;54.294;18.598;2023-01-25T06:59:06;41.88;;;16.40;;
57047;SDS011;42934;54.294;18.598;2023-01-25T07:01:35;40.08;;;15.68;;
57047;SDS011;42934;54.294;18.598;2023-01-25T07:04:04;46.80;;;16.45;;
57047;SDS011;42934;54.294;18.598;2023-01-25T07:06:36;38.63;;;16.15;;
57047;SDS011;42934;54.294;18.598;2023-01-25T07:09:06;39.92;;;15.55;;
57047;SDS011;42934;54.294;18.598;2023-01-25T07:11:37;41.65;;;15.25;;
57047;SDS011;42934;54.294;18.598;2023-01-25T07:14:06;41.63;;;16.08;;
57047;SDS011;42934;54.294;18.598;2023-01-25T07:16:35;35.53;;;14.77;;
57047;SDS011;42934;54.294;18.598;2023-01-25T07:19:05;36.97;;;15.65;;
57047;SDS011;42934;54.294;18.598;2023-01-25T07:21:38;36.25;;;15.57;;
57047;SDS011;42934;54.294;18.598;2023-01-25T07:24:09;42.63;;;16.77;;
57047;SDS011;42934;54.294;18.598;2023-01-25T07:26:42;45.50;;;17.00;;
57047;SDS011;42934;54.294;18.598;2023-01-25T07:29:13;44.35;;;16.25;;
57047;SDS011;42934;54.294;18.598;2023-01-25T07:31:43;42.60;;;17.75;;
57047;SDS011;42934;54.294;18.598;2023-01-25T07:34:12;40.35;;;16.40;;
57047;SDS011;42934;54.294;18.598;2023-01-25T07:36:43;44.15;;;16.27;;
57047;SDS011;42934;54.294;18.598;2023-01-25T07:39:12;40.22;;;16.42;;
57047;SDS011;42934;54.294;18.598;2023-01-25T07:41:43;44.72;;;16.40;;
57047;SDS011;42934;54.294;18.598;2023-01-25T07:44:13;46.00;;;17.52;;
57047;SDS011;42934;54.294;18.598;2023-01-25T07:46:45;41.92;;;16.88;;
57047;SDS011;42934;54.294;18.598;2023-01-25T07:49:14;45.97;;;16.23;;
57047;SDS011;42934;54.294;18.598;2023-01-25T07:51:45;47.17;;;16.35;;
57047;SDS011;42934;54.294;18.598;2023-01-25T07:56:43;40.78;;;15.80;;
57047;SDS011;42934;54.294;18.598;2023-01-25T07:59:12;41.15;;;16.20;;
57047;SDS011;42934;54.294;18.598;2023-01-25T08:01:42;42.72;;;15.48;;
57047;SDS011;42934;54.294;18.598;2023-01-25T08:04:10;42.58;;;15.77;;
57047;SDS011;42934;54.294;18.598;2023-01-25T08:06:41;41.70;;;16.80;;
57047;SDS011;42934;54.294;18.598;2023-01-25T08:09:14;37.95;;;15.98;;
57047;SDS011;42934;54.294;18.598;2023-01-25T08:11:46;37.60;;;15.10;;
57047;SDS011;42934;54.294;18.598;2023-01-25T08:14:15;40.55;;;16.15;;
57047;SDS011;42934;54.294;18.598;2023-01-25T08:16:44;85.07;;;27.20;;
57047;SDS011;42934;54.294;18.598;2023-01-25T08:19:13;48.40;;;17.80;;
57047;SDS011;42934;54.294;18.598;2023-01-25T08:21:42;43.53;;;16.67;;
57047;SDS011;42934;54.294;18.598;2023-01-25T08:24:13;39.67;;;16.42;;
57047;SDS011;42934;54.294;18.598;2023-01-25T08:26:43;47.53;;;18.45;;
57047;SDS011;42934;54.294;18.598;2023-01-25T08:29:12;48.80;;;18.33;;
57047;SDS011;42934;54.294;18.598;2023-01-25T08:31:41;47.67;;;17.97;;
57047;SDS011;42934;54.294;18.598;2023-01-25T08:34:11;45.28;;;17.52;;
57047;SDS011;42934;54.294;18.598;2023-01-25T08:36:40;47.28;;;17.27;;
57047;SDS011;42934;54.294;18.598;2023-01-25T08:39:10;50.80;;;18.83;;
57047;SDS011;42934;54.294;18.598;2023-01-25T08:41:42;48.55;;;19.42;;
57047;SDS011;42934;54.294;18.598;2023-01-25T08:44:11;48.63;;;17.48;;
57047;SDS011;42934;54.294;18.598;2023-01-25T08:46:40;47.17;;;16.98;;
57047;SDS011;42934;54.294;18.598;2023-01-25T08:49:10;49.78;;;18.90;;
57047;SDS011;42934;54.294;18.598;2023-01-25T08:51:39;53.28;;;20.60;;
57047;SDS011;42934;54.294;18.598;2023-01-25T08:54:09;49.55;;;18.00;;
57047;SDS011;42934;54.294;18.598;2023-01-25T08:56:40;47.78;;;18.85;;
57047;SDS011;42934;54.294;18.598;2023-01-25T08:59:12;43.10;;;17.75;;
57047;SDS011;42934;54.294;18.598;2023-01-25T09:01:41;41.13;;;16.00;;
57047;SDS011;42934;54.294;18.598;2023-01-25T09:04:10;47.63;;;18.50;;
57047;SDS011;42934;54.294;18.598;2023-01-25T09:06:39;44.28;;;16.80;;
57047;SDS011;42934;54.294;18.598;2023-01-25T09:09:08;45.78;;;19.50;;
57047;SDS011;42934;54.294;18.598;2023-01-25T09:14:08;46.40;;;17.20;;
57047;SDS011;42934;54.294;18.598;2023-01-25T09:16:38;36.17;;;15.50;;
57047;SDS011;42934;54.294;18.598;2023-01-25T09:19:07;43.28;;;17.15;;
57047;SDS011;42934;54.294;18.598;2023-01-25T09:21:37;52.67;;;19.10;;
57047;SDS011;42934;54.294;18.598;2023-01-25T09:24:06;46.85;;;18.77;;
57047;SDS011;42934;54.294;18.598;2023-01-25T09:26:37;50.70;;;20.25;;
57047;SDS011;42934;54.294;18.598;2023-01-25T09:29:11;53.63;;;19.15;;
57047;SDS011;42934;54.294;18.598;2023-01-25T09:31:40;57.58;;;20.85;;
57047;SDS011;42934;54.294;18.598;2023-01-25T09:34:13;46.58;;;17.90;;
57047;SDS011;42934;54.294;18.598;2023-01-25T09:36:43;49.63;;;19.15;;
57047;SDS011;42934;54.294;18.598;2023-01-25T09:39:12;42.70;;;17.17;;
57047;SDS011;42934;54.294;18.598;2023-01-25T09:41:50;41.00;;;17.92;;
57047;SDS011;42934;54.294;18.598;2023-01-25T09:44:52;46.05;;;18.75;;
57047;SDS011;42934;54.294;18.598;2023-01-25T09:47:53;41.53;;;16.30;;
57047;SDS011;42934;54.294;18.598;2023-01-25T09:50:34;47.63;;;17.63;;
57047;SDS011;42934;54.294;18.598;2023-01-25T09:53:15;43.05;;;16.98;;
57047;SDS011;42934;54.294;18.598;2023-01-25T09:55:57;36.53;;;16.35;;
57047;SDS011;42934;54.294;18.598;2023-01-25T09:58:31;41.45;;;17.10;;
57047;SDS011;42934;54.294;18.598;2023-01-25T10:01:11;43.17;;;18.10;;
57047;SDS011;42934;54.294;18.598;2023-01-25T10:06:38;36.45;;;15.60;;
57047;SDS011;42934;54.294;18.598;2023-01-25T10:09:29;39.15;;;15.57;;
57047;SDS011;42934;54.294;18.598;2023-01-25T10:12:05;35.40;;;17.58;;
57047;SDS011;42934;54.294;18.598;2023-01-25T10:14:42;41.67;;;16.98;;
57047;SDS011;42934;54.294;18.598;2023-01-25T10:17:25;41.95;;;16.63;;
57047;SDS011;42934;54.294;18.598;2023-01-25T10:20:06;38.15;;;17.20;;
57047;SDS011;42934;54.294;18.598;2023-01-25T10:22:43;37.83;;;16.98;;
57047;SDS011;42934;54.294;18.598;2023-01-25T10:25:23;41.40;;;16.23;;
57047;SDS011;42934;54.294;18.598;2023-01-25T10:28:08;41.53;;;17.33;;
57047;SDS011;42934;54.294;18.598;2023-01-25T10:30:52;41.35;;;18.00;;
57047;SDS011;42934;54.294;18.598;2023-01-25T10:33:26;41.75;;;16.92;;
57047;SDS011;42934;54.294;18.598;2023-01-25T10:35:57;35.22;;;15.88;;
57047;SDS011;42934;54.294;18.598;2023-01-25T10:38:32;38.97;;;16.08;;
57047;SDS011;42934;54.294;18.598;2023-01-25T10:41:09;43.38;;;18.65;;
57047;SDS011;42934;54.294;18.598;2023-01-25T10:43:43;42.35;;;18.75;;
57047;SDS011;42934;54.294;18.598;2023-01-25T10:46:16;45.93;;;18.63;;
57047;SDS011;42934;54.294;18.598;2023-01-25T10:48:49;39.38;;;15.68;;
57047;SDS011;42934;54.294;18.598;2023-01-25T10:51:29;41.67;;;17.38;;
57047;SDS011;42934;54.294;18.598;2023-01-25T10:56:32;47.33;;;17.30;;
57047;SDS011;42934;54.294;18.598;2023-01-25T10:59:06;42.53;;;19.25;;
57047;SDS011;42934;54.294;18.598;2023-01-25T11:04:29;40.92;;;17.25;;
57047;SDS011;42934;54.294;18.598;2023-01-25T11:07:01;36.22;;;17.20;;
57047;SDS011;42934;54.294;18.598;2023-01-25T11:09:33;42.67;;;18.70;;
57047;SDS011;42934;54.294;18.598;2023-01-25T11:12:05;43.58;;;19.00;;
57047;SDS011;42934;54.294;18.598;2023-01-25T11:14:44;45.85;;;18.73;;
57047;SDS011;42934;54.294;18.598;2023-01-25T11:17:21;45.30;;;20.45;;
57047;SDS011;42934;54.294;18.598;2023-01-25T11:20:05;43.95;;;20.20;;
57047;SDS011;42934;54.294;18.598;2023-01-25T11:25:26;50.10;;;22.52;;
57047;SDS011;42934;54.294;18.598;2023-01-25T11:28:10;44.97;;;20.15;;
57047;SDS011;42934;54.294;18.598;2023-01-25T11:30:48;45.00;;;20.83;;
57047;SDS011;42934;54.294;18.598;2023-01-25T11:33:19;44.30;;;22.38;;
57047;SDS011;42934;54.294;18.598;2023-01-25T11:35:56;42.60;;;20.42;;
57047;SDS011;42934;54.294;18.598;2023-01-25T11:38:36;36.83;;;20.02;;
57047;SDS011;42934;54.294;18.598;2023-01-25T11:41:15;37.00;;;20.23;;
57047;SDS011;42934;54.294;18.598;2023-01-25T11:43:58;38.85;;;19.67;;
57047;SDS011;42934;54.294;18.598;2023-01-25T11:46:44;40.83;;;20.80;;
57047;SDS011;42934;54.294;18.598;2023-01-25T11:49:25;43.90;;;22.02;;
57047;SDS011;42934;54.294;18.598;2023-01-25T11:52:10;42.78;;;21.08;;
57047;SDS011;42934;54.294;18.598;2023-01-25T11:54:50;42.20;;;21.10;;
57047;SDS011;42934;54.294;18.598;2023-01-25T11:57:31;46.22;;;20.92;;
57047;SDS011;42934;54.294;18.598;2023-01-25T12:03:29;47.97;;;24.83;;
57047;SDS011;42934;54.294;18.598;2023-01-25T12:06:27;45.65;;;22.27;;
57047;SDS011;42934;54.294;18.598;2023-01-25T12:09:15;40.65;;;20.33;;
57047;SDS011;42934;54.294;18.598;2023-01-25T12:12:02;41.00;;;20.63;;
57047;SDS011;42934;54.294;18.598;2023-01-25T12:14:41;43.65;;;21.17;;
57047;SDS011;42934;54.294;18.598;2023-01-25T12:17:33;46.53;;;22.70;;
57047;SDS011;42934;54.294;18.598;2023-01-25T12:20:17;45.20;;;22.70;;
57047;SDS011;42934;54.294;18.598;2023-01-25T12:23:01;47.00;;;22.77;;
57047;SDS011;42934;54.294;18.598;2023-01-25T12:25:48;45.60;;;22.17;;
57047;SDS011;42934;54.294;18.598;2023-01-25T12:28:30;49.97;;;24.23;;
57047;SDS011;42934;54.294;18.598;2023-01-25T12:31:05;46.70;;;22.80;;
57047;SDS011;42934;54.294;18.598;2023-01-25T12:33:40;49.85;;;23.15;;
57047;SDS011;42934;54.294;18.598;2023-01-25T12:36:15;45.55;;;22.35;;
57047;SDS011;42934;54.294;18.598;2023-01-25T12:38:48;46.20;;;23.42;;
57047;SDS011;42934;54.294;18.598;2023-01-25T12:41:25;41.75;;;20.95;;
57047;SDS011;42934;54.294;18.598;2023-01-25T12:44:06;44.05;;;21.52;;
57047;SDS011;42934;54.294;18.598;2023-01-25T12:46:41;41.72;;;21.58;;
57047;SDS011;42934;54.294;18.598;2023-01-25T12:49:20;44.03;;;21.70;;
57047;SDS011;42934;54.294;18.598;2023-01-25T12:51:55;45.83;;;21.95;;
57047;SDS011;42934;54.294;18.598;2023-01-25T12:54:31;44.75;;;22.13;;
57047;SDS011;42934;54.294;18.598;2023-01-25T12:57:08;42.67;;;22.08;;
57047;SDS011;42934;54.294;18.598;2023-01-25T12:59:49;41.92;;;21.77;;
57047;SDS011;42934;54.294;18.598;2023-01-25T13:02:45;46.80;;;22.57;;
57047;SDS011;42934;54.294;18.598;2023-01-25T13:05:34;44.53;;;22.73;;
57047;SDS011;42934;54.294;18.598;2023-01-25T13:08:18;47.78;;;22.80;;
57047;SDS011;42934;54.294;18.598;2023-01-25T13:11:04;47.40;;;22.67;;
57047;SDS011;42934;54.294;18.598;2023-01-25T13:13:39;41.13;;;21.93;;
57047;SDS011;42934;54.294;18.598;2023-01-25T13:16:22;47.10;;;21.50;;
57047;SDS011;42934;54.294;18.598;2023-01-25T13:19:00;44.47;;;20.00;;
57047;SDS011;42934;54.294;18.598;2023-01-25T13:21:42;48.50;;;21.90;;
57047;SDS011;42934;54.294;18.598;2023-01-25T13:24:13;46.50;;;21.17;;
57047;SDS011;42934;54.294;18.598;2023-01-25T13:26:46;45.97;;;21.38;;
57047;SDS011;42934;54.294;18.598;2023-01-25T13:32:51;50.22;;;22.13;;
57047;SDS011;42934;54.294;18.598;2023-01-25T13:35:26;49.17;;;20.77;;
57047;SDS011;42934;54.294;18.598;2023-01-25T13:38:02;43.08;;;20.10;;
57047;SDS011;42934;54.294;18.598;2023-01-25T13:40:46;44.90;;;20.58;;
57047;SDS011;42934;54.294;18.598;2023-01-25T13:43:41;46.13;;;21.30;;
57047;SDS011;42934;54.294;18.598;2023-01-25T13:46:15;43.45;;;20.88;;
57047;SDS011;42934;54.294;18.598;2023-01-25T13:48:54;44.15;;;20.45;;
57047;SDS011;42934;54.294;18.598;2023-01-25T13:51:32;40.45;;;19.83;;
57047;SDS011;42934;54.294;18.598;2023-01-25T13:54:13;45.20;;;21.85;;
57047;SDS011;42934;54.294;18.598;2023-01-25T13:56:43;44.00;;;20.30;;
57047;SDS011;42934;54.294;18.598;2023-01-25T13:59:25;47.22;;;21.55;;
57047;SDS011;42934;54.294;18.598;2023-01-25T14:01:57;44.25;;;20.80;;
57047;SDS011;42934;54.294;18.598;2023-01-25T14:04:28;46.15;;;21.33;;
57047;SDS011;42934;54.294;18.598;2023-01-25T14:06:58;48.17;;;22.25;;
57047;SDS011;42934;54.294;18.598;2023-01-25T14:09:35;50.03;;;22.52;;
57047;SDS011;42934;54.294;18.598;2023-01-25T14:12:09;37.75;;;18.60;;
57047;SDS011;42934;54.294;18.598;2023-01-25T14:14:39;44.20;;;21.33;;
57047;SDS011;42934;54.294;18.598;2023-01-25T14:17:16;48.10;;;20.60;;
57047;SDS011;42934;54.294;18.598;2023-01-25T14:19:47;39.40;;;20.70;;
57047;SDS011;42934;54.294;18.598;2023-01-25T14:22:21;40.50;;;20.33;;
57047;SDS011;42934;54.294;18.598;2023-01-25T14:25:03;40.15;;;19.35;;
57047;SDS011;42934;54.294;18.598;2023-01-25T14:27:34;40.55;;;19.45;;
57047;SDS011;42934;54.294;18.598;2023-01-25T14:30:14;46.40;;;19.83;;
57047;SDS011;42934;54.294;18.598;2023-01-25T14:32:47;42.78;;;20.15;;
57047;SDS011;42934;54.294;18.598;2023-01-25T14:35:31;47.38;;;20.25;;
57047;SDS011;42934;54.294;18.598;2023-01-25T14:38:21;44.63;;;20.60;;
57047;SDS011;42934;54.294;18.598;2023-01-25T14:40:53;47.28;;;21.48;;
57047;SDS011;42934;54.294;18.598;2023-01-25T14:43:25;48.50;;;21.85;;
57047;SDS011;42934;54.294;18.598;2023-01-25T14:48:38;43.17;;;19.35;;
57047;SDS011;42934;54.294;18.598;2023-01-25T14:51:13;40.05;;;18.67;;
57047;SDS011;42934;54.294;18.598;2023-01-25T14:53:45;38.72;;;19.92;;
57047;SDS011;42934;54.294;18.598;2023-01-25T14:56:22;37.22;;;18.52;;
57047;SDS011;42934;54.294;18.598;2023-01-25T14:58:58;42.50;;;19.10;;
57047;SDS011;42934;54.294;18.598;2023-01-25T15:01:29;39.08;;;19.02;;
57047;SDS011;42934;54.294;18.598;2023-01-25T15:04:03;39.38;;;19.30;;
57047;SDS011;42934;54.294;18.598;2023-01-25T15:06:44;41.00;;;19.30;;
57047;SDS011;42934;54.294;18.598;2023-01-25T15:09:31;40.30;;;19.45;;
57047;SDS011;42934;54.294;18.598;2023-01-25T15:14:54;44.38;;;19.73;;
57047;SDS011;42934;54.294;18.598;2023-01-25T15:17:34;40.13;;;19.45;;
57047;SDS011;42934;54.294;18.598;2023-01-25T15:23:04;40.60;;;18.33;;
57047;SDS011;42934;54.294;18.598;2023-01-25T15:25:52;44.40;;;19.42;;
57047;SDS011;42934;54.294;18.598;2023-01-25T15:28:29;44.13;;;19.73;;
57047;SDS011;42934;54.294;18.598;2023-01-25T15:31:00;54.05;;;24.48;;
57047;SDS011;42934;54.294;18.598;2023-01-25T15:33:30;61.17;;;26.90;;
57047;SDS011;42934;54.294;18.598;2023-01-25T15:36:02;60.85;;;26.13;;